NCAR-RAP Real-Time Weather Data

Output produced by METARs form (20 February 2019  18:04 UTC)
found at http://weather.rap.ucar.edu/surface/
 
RJFS 201700Z 32003KT 9999 FEW050 SCT100 BKN120 06/04 Q1024
RJFS 201600Z 35003KT 9999 FEW050 BKN150 05/03 Q1023
RJFS 201200Z 32004KT 9999 FEW040 SCT120 BKN150 06/04 Q1023
RJFS 201100Z 35004KT 9999 FEW035 SCT170 07/04 Q1023
RJFS 201000Z 31009KT 9999 FEW035 BKN/// 08/04 Q1022
RJFS 200900Z 31007KT 9999 FEW035 09/04 Q1022
RJFS 200800Z 31008KT 290V350 9999 FEW035 11/05 Q1022
RJFS 200700Z 29009KT 9999 FEW035 12/04 Q1021
RJFS 200600Z 29008KT 260V320 9999 SCT035 12/04 Q1022
RJFS 200500Z 26009KT 9999 FEW030 SCT040 11/04 Q1022
RJFS 200400Z 27011KT 9999 FEW030 SCT035 BKN040 11/05 Q1022
RJFS 200300Z 26005KT 9999 FEW030 SCT035 BKN040 11/04 Q1023
RJFS 200200Z 27004KT 9999 FEW025 SCT030 BKN040 11/05 Q1023
RJFS 200100Z 28012KT 9999 FEW035 BKN040 10/05 Q1023
RJFS 200000Z 30008KT 9999 FEW020 BKN030 10/06 Q1022
RJFS 192300Z 32003KT 9999 FEW020 BKN035 10/07 Q1021
RJFS 192200Z 28006KT 9999 FEW030 BKN040 10/07 Q1020
RJFS 192100Z 27007KT 9999 FEW020 SCT035 BKN040 10/07 Q1020
RJFS 191900Z 30007KT 9999 FEW020 SCT025 BKN030 11/08 Q1019
RJFS 191800Z 29010KT 9999 FEW020 SCT030 BKN035 11/09 Q1019
RJFS 191700Z 27014KT 9999 FEW020 BKN035 11/09 Q1019
RJFS 191600Z 30009KT 9999 FEW010 SCT030 BKN040 12/10 Q1019
RJFS 191200Z 29011KT 9999 FEW020 SCT030 BKN040 13/11 Q1017
RJFS 191100Z 28006KT 9999 FEW020 BKN030 14/11 Q1017
RJFS 191000Z 28011KT 9999 FEW015 BKN030 14/11 Q1016
RJFS 190900Z 26010KT 9999 FEW015 BKN030 15/12 Q1015
RJFS 190800Z 27010KT 9999 FEW025 16/13 Q1014
RJFS 190700Z 28019KT 9999 FEW015 SCT030 17/14 Q1013
RJFS 190600Z 25014KT 9999 FEW010 SCT025 18/15 Q1012
RJFS 190529Z 24010KT 9999 FEW005 SCT025 16/14 Q1012 RMK 1CU005 4CU025 A2990
RJFS 190500Z VRB05KT 9999 FEW003 SCT025 15/14 Q1012
RJFS 190400Z 01003KT 310V070 8000 FEW002 SCT010 BKN020 14/13 Q1012
RJFS 190340Z 35004KT 6000 -SHRA FEW002 SCT007 BKN010 13/13 Q1012 RMK 2ST002 4CU007 5CU010 A2990
RJFS 190324Z 34005KT 4000 -SHRA BR FEW002 SCT007 BKN010 13/13 Q1012 RMK 2ST002 4CU007 6CU010 A2990
RJFS 190300Z VRB03KT 2000 R29/1100VP2000U -SHRA BR FEW002 BKN007 BKN010 12/12 Q1013
RJFS 190236Z 14005KT 2000 -SHRA BR FEW002 BKN010 BKN020 12/11 Q1013 RMK 2ST002 5CU010 6CU020 A2992
RJFS 190200Z 07006KT 020V120 2500 R29/2000N -SHRA BR FEW003 SCT010 BKN020 11/11 Q1013
RJFS 190125Z 08005KT 2000 R29/2000N -SHRA BR FEW008 SCT015 BKN020 10/10 Q1013 RMK 1ST008 3CU015 5CU020 A2994
RJFS 190106Z 05004KT 1500 R29/1300V1900D SHRA BR FEW005 SCT010 BKN020 10/10 Q1014 RMK 1ST005 3CU010 5CU020 A2995
RJFS 190100Z 06003KT 1800 R29/1700N -SHRA BR FEW005 SCT010 BKN020 10/10 Q1014
RJFS 190012Z VRB02KT 2000 R29/1900U -SHRA BR FEW005 SCT015 BKN030 09/09 Q1014 RMK 1ST005 4CU015 6CU030 A2995
RJFS 190000Z 36003KT 330V030 1500 R29/1900D SHRA BR FEW005 SCT015 BKN025 09/09 Q1014
RJFS 182332Z 05006KT 1800 R29/2000N -SHRA BR FEW005 SCT030 BKN035 09/09 Q1014 RMK 2ST005 4CU030 6CU035 A2996
RJFS 182300Z 06005KT 1200 R29/1900N -SHRA BR FEW005 SCT025 BKN030 09/08 Q1015
RJFS 182200Z 07006KT 1500 R29/P2000N -SHRA BR FEW007 SCT030 BKN035 09/08 Q1016
RJFS 182115Z 06005KT 1500 R29/P2000N -SHRA BR FEW030 SCT035 BKN040 08/08 Q1017 RMK 1CU030 3CU035 6CU040 A3004
RJFS 182100Z 05005KT 2500 -RA BR FEW035 SCT045 BKN050 08/08 Q1017
RJFS 181900Z 07004KT 5000 -RA BR FEW025 SCT080 BKN100 08/07 Q1019
RJFS 181800Z 06005KT 7000 -RA FEW050 SCT070 BKN090 08/07 Q1020
RJFS 181700Z 05007KT 7000 -RA NSC 08/07 Q1021
RJFS 181600Z 04001KT 8000 -RA NSC 08/06 Q1022
RJFS 181200Z 29004KT 9999 FEW050 BKN060 09/05 Q1024
RJFS 181100Z 28003KT 9999 FEW050 BKN060 10/03 Q1023
RJFS 181000Z 28003KT 9999 -RA FEW050 BKN070 09/03 Q1024
RJFS 180900Z VRB02KT 9999 -RA NSC 10/03 Q1023
RJFS 180800Z VRB01KT 9999 -RA NSC 10/03 Q1022
RJFS 180700Z 24003KT 190V280 CAVOK 10/03 Q1022